createdAt,value
2022-11-14T00:01:39.663Z,-23255.06
2022-11-14T00:03:42.294Z,-23255.88
2022-11-14T00:05:46.900Z,-23254.09
2022-11-14T00:07:49.497Z,-23255.38
2022-11-14T00:09:52.286Z,-23256.50
2022-11-14T00:11:55.038Z,-23253.94
2022-11-14T00:13:57.623Z,-23253.47
2022-11-14T00:16:00.318Z,-23250.91
2022-11-14T00:18:04.484Z,-23249.00
2022-11-14T00:20:09.482Z,-23247.41
2022-11-14T00:22:12.078Z,-23247.72
2022-11-14T00:24:14.664Z,-23246.78
2022-11-14T00:26:17.297Z,-23246.78
2022-11-14T00:28:19.919Z,-23249.00
2022-11-14T00:30:22.594Z,-23245.19
2022-11-14T00:32:25.216Z,-23246.28
2022-11-14T00:34:29.198Z,-23243.25
2022-11-14T00:36:31.811Z,-23242.63
2022-11-14T00:38:34.443Z,-23240.38
2022-11-14T00:40:37.114Z,-23241.03
2022-11-14T00:42:39.765Z,-23243.25
2022-11-14T00:44:42.393Z,-23242.47
2022-11-14T00:46:45.112Z,-23245.19
2022-11-14T00:48:47.735Z,-23244.53
2022-11-14T00:50:51.685Z,-23242.31
2022-11-14T00:52:54.335Z,-23240.88
2022-11-14T00:54:56.983Z,-23240.72
2022-11-14T00:56:59.672Z,-23240.38
2022-11-14T00:59:02.268Z,-23243.75
2022-11-14T01:01:05.173Z,-23244.22
2022-11-14T01:03:07.802Z,-23246.59
2022-11-14T01:05:10.670Z,-23243.25
2022-11-14T01:07:14.719Z,-23240.06
2022-11-14T01:09:17.444Z,-23242.63
2022-11-14T01:11:22.440Z,-23242.94
2022-11-14T01:13:25.097Z,-23241.97
2022-11-14T01:15:27.742Z,-23238.47
2022-11-14T01:17:30.409Z,-23238.94
2022-11-14T01:19:33.197Z,-23238.47
2022-11-14T01:21:35.847Z,-23243.09
2022-11-14T01:23:40.733Z,-23243.56
2022-11-14T01:25:44.028Z,-23244.38
2022-11-14T01:27:46.622Z,-23245.19
2022-11-14T01:29:49.485Z,-23244.84
2022-11-14T01:31:52.058Z,-23244.06
2022-11-14T01:33:55.357Z,-23242.31
2022-11-14T01:36:00.435Z,-23244.84
2022-11-14T01:38:03.339Z,-23243.56
2022-11-14T01:40:08.769Z,-23242.63
2022-11-14T01:42:11.491Z,-23241.66
2022-11-14T01:44:16.084Z,-23237.50
2022-11-14T01:46:22.877Z,-23237.50
2022-11-14T01:48:32.173Z,-23239.75
2022-11-14T01:50:35.031Z,-23241.03
2022-11-14T01:52:40.295Z,-23240.38
2022-11-14T01:54:46.834Z,-23241.03
2022-11-14T01:56:55.908Z,-23238.78
2022-11-14T01:59:04.282Z,-23240.56
2022-11-14T02:01:07.444Z,-23236.25
2022-11-14T02:03:10.795Z,-23237.34
2022-11-14T02:05:17.391Z,-23236.72
2022-11-14T02:07:20.675Z,-23235.75
2022-11-14T02:09:24.017Z,-23237.69
2022-11-14T02:11:31.542Z,-23234.66
2022-11-14T02:13:35.514Z,-23237.50
2022-11-14T02:15:38.747Z,-23234.66
2022-11-14T02:17:41.824Z,-23239.28
2022-11-14T02:19:46.318Z,-23234.81
2022-11-14T02:21:50.387Z,-23234.97
2022-11-14T02:23:53.068Z,-23237.50
2022-11-14T02:25:56.151Z,-23237.03
2022-11-14T02:28:01.047Z,-23231.13
2022-11-14T02:30:05.956Z,-23227.63
2022-11-14T02:32:10.820Z,-23228.25
2022-11-14T02:34:16.802Z,-23226.66
2022-11-14T02:36:19.509Z,-23224.13
2022-11-14T02:38:23.589Z,-23221.09
2022-11-14T02:40:26.243Z,-23219.31
2022-11-14T02:42:28.863Z,-23217.25
2022-11-14T02:44:31.682Z,-23221.41
2022-11-14T02:46:34.424Z,-23217.09
2022-11-14T02:48:37.040Z,-23217.41
2022-11-14T02:50:39.705Z,-23218.06
2022-11-14T02:52:42.332Z,-23214.22
2022-11-14T02:54:49.218Z,-23213.41
2022-11-14T02:56:55.949Z,-23211.50
2022-11-14T02:58:58.580Z,-23215.19
2022-11-14T03:01:19.575Z,-23217.72
2022-11-14T03:03:22.694Z,-23202.09
2022-11-14T03:05:25.834Z,-23198.56
2022-11-14T03:07:28.502Z,-23198.25
2022-11-14T03:09:31.249Z,-23201.28
2022-11-14T03:11:35.208Z,-23203.53
2022-11-14T03:13:38.149Z,-23207.84
2022-11-14T03:15:40.867Z,-23206.88
2022-11-14T03:17:43.483Z,-23207.19
2022-11-14T03:19:46.110Z,-23205.91
2022-11-14T03:21:48.695Z,-23203.69
2022-11-14T03:23:51.477Z,-23202.72
2022-11-14T03:25:54.081Z,-23200.16
2022-11-14T03:27:58.065Z,-23201.75
2022-11-14T03:30:00.748Z,-23202.25
2022-11-14T03:32:03.559Z,-23204.00
2022-11-14T03:34:06.212Z,-23210.06
2022-11-14T03:36:09.353Z,-23206.88
2022-11-14T03:38:12.055Z,-23205.28
2022-11-14T03:40:14.864Z,-23203.38
2022-11-14T03:42:17.509Z,-23210.38
2022-11-14T03:44:21.509Z,-23203.69
2022-11-14T03:46:24.150Z,-23200.50
2022-11-14T03:48:27.216Z,-23202.72
2022-11-14T03:50:30.068Z,-23202.09
2022-11-14T03:52:32.820Z,-23203.69
2022-11-14T03:54:35.503Z,-23200.81
2022-11-14T03:56:38.187Z,-23197.63
2022-11-14T03:58:40.787Z,-23193.16
2022-11-14T04:00:45.007Z,-23196.50
2022-11-14T04:02:47.842Z,-23200.66
2022-11-14T04:04:50.483Z,-23202.72
2022-11-14T04:06:53.175Z,-23204.97
2022-11-14T04:08:56.643Z,-23207.50
2022-11-14T04:10:59.428Z,-23210.22
2022-11-14T04:13:02.060Z,-23212.63
2022-11-14T04:15:05.383Z,-23212.31
2022-11-14T04:17:09.408Z,-23213.56
2022-11-14T04:19:12.003Z,-23211.19
2022-11-14T04:21:14.692Z,-23212.78
2022-11-14T04:23:17.308Z,-23212.31
2022-11-14T04:25:19.961Z,-23211.50
2022-11-14T04:27:22.632Z,-23211.81
2022-11-14T04:29:25.290Z,-23217.09
2022-11-14T04:31:27.900Z,-23218.06
2022-11-14T04:33:31.988Z,-23215.50
2022-11-14T04:35:34.574Z,-23218.22
2022-11-14T04:37:38.623Z,-23222.50
2022-11-14T04:39:41.224Z,-23222.34
2022-11-14T04:41:43.837Z,-23222.50
2022-11-14T04:43:50.939Z,-23225.72
2022-11-14T04:45:53.790Z,-23224.59
2022-11-14T04:47:56.470Z,-23222.84
2022-11-14T04:50:00.456Z,-23228.09
2022-11-14T04:52:03.060Z,-23226.81
2022-11-14T04:54:06.143Z,-23229.22
2022-11-14T04:56:09.410Z,-23227.63
2022-11-14T04:58:12.027Z,-23228.91
2022-11-14T05:00:16.056Z,-23231.78
2022-11-14T05:02:18.646Z,-23231.78
2022-11-14T05:04:21.254Z,-23233.03
2022-11-14T05:06:25.213Z,-23234.66
2022-11-14T05:08:28.334Z,-23232.72
2022-11-14T05:10:31.205Z,-23232.41
2022-11-14T05:12:33.947Z,-23234.16
2022-11-14T05:14:36.950Z,-23234.16
2022-11-14T05:16:39.579Z,-23234.97
2022-11-14T05:18:46.910Z,-23232.72
2022-11-14T05:20:49.847Z,-23230.81
2022-11-14T05:22:56.212Z,-23229.38
2022-11-14T05:24:58.804Z,-23230.19
2022-11-14T05:27:01.414Z,-23232.25
2022-11-14T05:29:04.381Z,-23230.19
2022-11-14T05:31:08.714Z,-23231.63
2022-11-14T05:33:11.347Z,-23232.91
2022-11-14T05:35:14.087Z,-23232.41
2022-11-14T05:37:16.954Z,-23234.66
2022-11-14T05:39:20.987Z,-23235.44
2022-11-14T05:41:23.678Z,-23236.41
2022-11-14T05:43:27.174Z,-23238.47
2022-11-14T05:45:29.769Z,-23236.25
2022-11-14T05:47:32.468Z,-23235.28
2022-11-14T05:49:35.062Z,-23234.97
2022-11-14T05:51:37.697Z,-23236.56
2022-11-14T05:53:40.932Z,-23236.88
2022-11-14T05:55:44.892Z,-23240.06
2022-11-14T05:57:47.525Z,-23240.88
2022-11-14T05:59:50.150Z,-23244.84
2022-11-14T06:01:52.979Z,-23244.38
2022-11-14T06:03:55.753Z,-23247.41
2022-11-14T06:06:00.384Z,-23247.09
2022-11-14T06:08:03.927Z,-23248.38
2022-11-14T06:10:07.295Z,-23252.50
2022-11-14T06:12:11.288Z,-23255.06
2022-11-14T06:14:14.107Z,-23257.94
2022-11-14T06:16:18.244Z,-23257.63
2022-11-14T06:18:20.856Z,-23254.09
2022-11-14T06:20:23.470Z,-23253.78
2022-11-14T06:22:26.180Z,-23255.38
2022-11-14T06:24:28.778Z,-23256.66
2022-11-14T06:26:32.623Z,-23259.38
2022-11-14T06:28:36.720Z,-23260.47
2022-11-14T06:30:41.426Z,-23261.13
2022-11-14T06:32:44.026Z,-23258.88
2022-11-14T06:34:46.746Z,-23261.44
2022-11-14T06:36:49.341Z,-23261.28
2022-11-14T06:38:51.954Z,-23262.41
2022-11-14T06:41:01.997Z,-23264.63
2022-11-14T06:43:04.626Z,-23269.09
2022-11-14T06:45:09.769Z,-23271.31
2022-11-14T06:47:12.405Z,-23273.56
2022-11-14T06:49:15.027Z,-23274.50
2022-11-14T06:51:18.492Z,-23276.75
2022-11-14T06:53:21.237Z,-23279.94
2022-11-14T06:55:25.493Z,-23275.47
2022-11-14T06:57:28.329Z,-23273.56
2022-11-14T06:59:31.740Z,-23277.06
2022-11-14T07:01:35.766Z,-23281.69
2022-11-14T07:03:38.837Z,-23285.50
2022-11-14T07:05:42.073Z,-23287.91
2022-11-14T07:07:45.075Z,-23289.19
2022-11-14T07:09:47.718Z,-23291.41
2022-11-14T07:11:50.347Z,-23290.44
2022-11-14T07:13:54.693Z,-23283.75
2022-11-14T07:15:57.357Z,-23282.81
2022-11-14T07:18:01.338Z,-23283.59
2022-11-14T07:20:04.303Z,-23286.31
2022-11-14T07:22:06.910Z,-23285.97
2022-11-14T07:24:09.619Z,-23282.81
2022-11-14T07:26:13.012Z,-23282.63
2022-11-14T07:28:15.679Z,-23281.03
2022-11-14T07:30:18.371Z,-23281.53
2022-11-14T07:32:21.003Z,-23281.19
2022-11-14T07:34:24.988Z,-23280.25
2022-11-14T07:36:27.662Z,-23280.41
2022-11-14T07:38:32.145Z,-23276.09
2022-11-14T07:40:35.055Z,-23272.28
2022-11-14T07:42:37.731Z,-23268.78
2022-11-14T07:44:40.360Z,-23271.00
2022-11-14T07:46:42.951Z,-23272.44
2022-11-14T07:48:46.377Z,-23276.75
2022-11-14T07:50:50.411Z,-23276.09
2022-11-14T07:52:53.713Z,-23278.50
2022-11-14T07:54:56.367Z,-23280.88
2022-11-14T07:56:58.963Z,-23283.91
2022-11-14T07:59:01.606Z,-23285.66
2022-11-14T08:01:06.513Z,-23287.25
2022-11-14T08:03:11.926Z,-23286.16
2022-11-14T08:05:14.617Z,-23289.50
2022-11-14T08:07:18.701Z,-23289.19
2022-11-14T08:09:23.053Z,-23286.31
2022-11-14T08:11:39.642Z,-23287.56
2022-11-14T08:13:42.296Z,-23287.56
2022-11-14T08:15:44.939Z,-23291.56
2022-11-14T08:17:47.567Z,-23293.31
2022-11-14T08:19:50.270Z,-23294.91
2022-11-14T08:21:52.938Z,-23298.88
2022-11-14T08:23:56.956Z,-23303.81
2022-11-14T08:25:59.903Z,-23312.25
2022-11-14T08:28:02.587Z,-23312.44
2022-11-14T08:30:06.031Z,-23311.16
2022-11-14T08:32:08.652Z,-23311.00
2022-11-14T08:34:11.313Z,-23313.53
2022-11-14T08:36:14.051Z,-23318.31
2022-11-14T08:38:16.720Z,-23322.78
2022-11-14T08:40:20.834Z,-23327.38
2022-11-14T08:42:23.513Z,-23327.38
2022-11-14T08:44:26.138Z,-23331.69
2022-11-14T08:46:28.746Z,-23335.50
2022-11-14T08:48:32.789Z,-23339.00
2022-11-14T08:50:35.697Z,-23344.59
2022-11-14T08:52:38.380Z,-23346.81
2022-11-14T08:54:41.034Z,-23347.75
2022-11-14T08:56:45.042Z,-23355.72
2022-11-14T08:58:47.723Z,-23358.59
2022-11-14T09:00:51.931Z,-23377.97
2022-11-14T09:02:54.627Z,-23385.94
2022-11-14T09:04:57.392Z,-23388.16
2022-11-14T09:07:00.181Z,-23394.19
2022-11-14T09:09:02.861Z,-23393.56
2022-11-14T09:11:09.254Z,-23392.28
2022-11-14T09:13:14.066Z,-23389.09
2022-11-14T09:15:16.864Z,-23384.34
2022-11-14T09:17:19.543Z,-23388.47
2022-11-14T09:19:22.299Z,-23391.97
2022-11-14T09:21:24.996Z,-23394.19
2022-11-14T09:23:28.022Z,-23398.00
2022-11-14T09:25:33.365Z,-23398.66
2022-11-14T09:27:36.055Z,-23401.03
2022-11-14T09:29:40.048Z,-23402.78
2022-11-14T09:31:42.716Z,-23399.75
2022-11-14T09:33:45.317Z,-23400.53
2022-11-14T09:35:48.015Z,-23401.19
2022-11-14T09:37:50.656Z,-23401.97
2022-11-14T09:39:53.366Z,-23400.72
2022-11-14T09:42:15.841Z,-23403.09
2022-11-14T09:44:50.026Z,-23408.34
2022-11-14T09:46:57.591Z,-23411.50
2022-11-14T09:49:00.556Z,-23407.06
2022-11-14T09:51:10.479Z,-23408.66
2022-11-14T09:53:21.271Z,-23405.78
2022-11-14T09:55:33.596Z,-23407.53
2022-11-14T09:57:38.045Z,-23408.16
2022-11-14T09:59:40.738Z,-23410.72
2022-11-14T10:01:52.643Z,-23411.66
2022-11-14T10:04:00.939Z,-23412.94
2022-11-14T10:06:18.803Z,-23416.75
2022-11-14T10:08:36.421Z,-23413.72
2022-11-14T10:10:52.098Z,-23418.50
2022-11-14T10:13:04.829Z,-23423.09
2022-11-14T10:15:15.545Z,-23426.28
2022-11-14T10:17:42.578Z,-23429.28
2022-11-14T10:19:52.805Z,-23435.16
2022-11-14T10:22:10.427Z,-23441.84
2022-11-14T10:24:29.352Z,-23439.78
2022-11-14T10:26:34.652Z,-23432.63
2022-11-14T10:28:47.847Z,-23434.38
2022-11-14T10:31:02.247Z,-23430.56
2022-11-14T10:33:18.702Z,-23430.56
2022-11-14T10:35:24.751Z,-23427.53
2022-11-14T10:37:33.270Z,-23426.59
2022-11-14T10:39:42.224Z,-23431.53
2022-11-14T10:42:06.245Z,-23434.06
2022-11-14T10:44:14.289Z,-23439.78
2022-11-14T10:46:21.876Z,-23444.38
2022-11-14T10:48:32.340Z,-23444.84
2022-11-14T10:50:42.312Z,-23444.69
2022-11-14T10:52:46.629Z,-23446.91
2022-11-14T10:54:53.095Z,-23448.66
2022-11-14T10:56:56.429Z,-23452.47
2022-11-14T10:59:00.603Z,-23455.31
2022-11-14T11:01:34.343Z,-23451.19
2022-11-14T11:03:45.288Z,-23453.25
2022-11-14T11:05:50.592Z,-23453.91
2022-11-14T11:08:36.603Z,-23454.84
2022-11-14T11:10:57.009Z,-23464.69
2022-11-14T11:12:59.729Z,-23470.53
2022-11-14T11:15:18.516Z,-23478.47
2022-11-14T11:17:26.847Z,-23476.56
2022-11-14T11:19:35.560Z,-23481.97
2022-11-14T11:21:49.453Z,-23488.00
2022-11-14T11:23:53.955Z,-23491.78
2022-11-14T11:26:05.517Z,-23496.88
2022-11-14T11:28:13.538Z,-23492.25
2022-11-14T11:30:23.015Z,-23489.41
2022-11-14T11:32:26.926Z,-23488.16
2022-11-14T11:34:33.258Z,-23488.63
2022-11-14T11:36:41.710Z,-23486.88
2022-11-14T11:38:45.406Z,-23490.53
2022-11-14T11:40:52.436Z,-23494.81
2022-11-14T11:45:24.958Z,-23494.16
2022-11-14T11:47:30.647Z,-23493.53
2022-11-14T11:49:41.491Z,-23493.38
2022-11-14T11:51:46.857Z,-23492.09
2022-11-14T11:53:58.330Z,-23493.06
2022-11-14T11:56:06.268Z,-23493.38
2022-11-14T11:58:18.847Z,-23493.69
2022-11-14T12:00:22.676Z,-23492.44
2022-11-14T12:02:28.030Z,-23493.22
2022-11-14T12:04:31.442Z,-23493.53
2022-11-14T12:06:42.643Z,-23492.25
2022-11-14T12:09:06.935Z,-23490.69
2022-11-14T12:11:15.144Z,-23489.41
2022-11-14T12:13:42.145Z,-23490.38
2022-11-14T12:15:51.570Z,-23491.31
2022-11-14T12:18:15.658Z,-23491.63
2022-11-14T12:20:48.621Z,-23492.59
2022-11-14T12:23:16.704Z,-23493.22
2022-11-14T12:25:36.296Z,-23495.28
2022-11-14T12:27:52.697Z,-23496.53
2022-11-14T12:30:10.478Z,-23495.91
2022-11-14T12:32:16.555Z,-23502.41
2022-11-14T12:34:27.733Z,-23513.81
2022-11-14T12:36:32.983Z,-23535.19
2022-11-14T12:38:43.223Z,-23549.59
2022-11-14T12:40:53.921Z,-23531.84
2022-11-14T12:42:58.562Z,-23532.19
2022-11-14T12:45:01.597Z,-23519.66
2022-11-14T12:47:16.569Z,-23517.28
2022-11-14T12:49:39.682Z,-23518.25
2022-11-14T12:51:52.497Z,-23531.84
2022-11-14T12:53:56.495Z,-23536.59
2022-11-14T12:56:15.256Z,-23538.19
2022-11-14T12:58:28.004Z,-23562.88
2022-11-14T13:00:31.421Z,-23554.34
2022-11-14T13:03:03.604Z,-23551.97
2022-11-14T13:05:40.359Z,-23563.50
2022-11-14T13:07:51.799Z,-23560.97
2022-11-14T13:10:15.525Z,-23564.47
2022-11-14T13:12:46.853Z,-23585.00
2022-11-14T13:15:08.615Z,-23583.75
2022-11-14T13:17:41.440Z,-23581.53
2022-11-14T13:20:04.759Z,-23582.16
2022-11-14T13:22:41.015Z,-23560.97
2022-11-14T13:25:17.479Z,-23551.97
2022-11-14T13:27:52.182Z,-23545.94
2022-11-14T13:29:52.181Z,-23551.81
2022-11-14T13:31:54.868Z,-23560.03
2022-11-14T13:34:00.156Z,-23570.78
2022-11-14T13:36:05.688Z,-23562.25
2022-11-14T13:38:42.574Z,-23564.78
2022-11-14T13:40:53.677Z,-23565.72
2022-11-14T13:43:06.717Z,-23570.94
2022-11-14T13:45:24.907Z,-23574.09
2022-11-14T13:47:43.567Z,-23574.88
2022-11-14T13:50:00.202Z,-23569.50
2022-11-14T13:52:03.178Z,-23561.28
2022-11-14T13:54:17.141Z,-23566.19
2022-11-14T13:56:33.067Z,-23567.78
2022-11-14T13:59:03.131Z,-23567.31
2022-11-14T14:01:21.062Z,-23565.41
2022-11-14T14:03:37.116Z,-23566.03
2022-11-14T14:06:04.001Z,-23567.63
2022-11-14T14:08:21.727Z,-23567.31
2022-11-14T14:10:33.909Z,-23563.34
2022-11-14T14:12:58.897Z,-23561.94
2022-11-14T14:15:16.649Z,-23562.56
2022-11-14T14:17:28.282Z,-23561.28
2022-11-14T14:19:42.092Z,-23557.81
2022-11-14T14:21:49.159Z,-23558.28
2022-11-14T14:24:00.195Z,-23560.81
2022-11-14T14:26:16.613Z,-23555.13
2022-11-14T14:28:26.295Z,-23555.28
2022-11-14T14:30:30.398Z,-23557.19
2022-11-14T14:32:33.421Z,-23555.28
2022-11-14T14:34:36.037Z,-23555.44
2022-11-14T14:36:49.162Z,-23551.16
2022-11-14T14:38:52.305Z,-23552.75
2022-11-14T14:40:56.505Z,-23549.44
2022-11-14T14:42:59.931Z,-23548.00
2022-11-14T14:45:04.381Z,-23548.97
2022-11-14T14:47:18.268Z,-23548.78
2022-11-14T14:49:24.192Z,-23551.16
2022-11-14T14:51:34.670Z,-23547.69
2022-11-14T14:53:37.462Z,-23545.16
2022-11-14T14:55:40.181Z,-23543.56
2022-11-14T14:57:42.807Z,-23543.09
2022-11-14T14:59:45.441Z,-23542.63
2022-11-14T15:01:49.109Z,-23540.72
2022-11-14T15:03:58.052Z,-23539.94
2022-11-14T15:06:02.213Z,-23538.19
2022-11-14T15:08:05.330Z,-23536.78
2022-11-14T15:10:08.880Z,-23535.81
2022-11-14T15:12:11.912Z,-23537.56
2022-11-14T15:14:17.169Z,-23539.00
2022-11-14T15:16:20.895Z,-23539.78
2022-11-14T15:18:27.080Z,-23540.88
2022-11-14T15:20:31.120Z,-23537.88
2022-11-14T15:22:33.761Z,-23539.16
2022-11-14T15:24:36.382Z,-23537.88
2022-11-14T15:26:39.591Z,-23537.56
2022-11-14T15:28:42.205Z,-23539.31
2022-11-14T15:30:58.967Z,-23540.72
2022-11-14T15:33:03.486Z,-23536.94
2022-11-14T15:35:10.372Z,-23534.22
2022-11-14T15:37:24.205Z,-23538.66
2022-11-14T15:39:29.195Z,-23535.03
2022-11-14T15:41:32.712Z,-23539.00
2022-11-14T15:43:49.269Z,-23536.78
2022-11-14T15:45:52.005Z,-23537.88
2022-11-14T15:48:00.118Z,-23538.84
2022-11-14T15:50:05.036Z,-23536.44
2022-11-14T15:52:21.399Z,-23532.19
2022-11-14T15:54:29.979Z,-23529.97
2022-11-14T15:56:32.563Z,-23531.38
2022-11-14T15:58:35.171Z,-23534.38
2022-11-14T16:00:41.652Z,-23532.34
2022-11-14T16:02:47.950Z,-23527.28
2022-11-14T16:04:52.548Z,-23528.22
2022-11-14T16:06:55.242Z,-23526.78
2022-11-14T16:08:57.866Z,-23523.00
2022-11-14T16:11:01.854Z,-23518.25
2022-11-14T16:13:04.616Z,-23519.66
2022-11-14T16:15:08.020Z,-23514.44
2022-11-14T16:17:14.317Z,-23509.38
2022-11-14T16:19:17.984Z,-23511.44
2022-11-14T16:21:20.646Z,-23507.16
2022-11-14T16:23:23.314Z,-23503.03
2022-11-14T16:25:27.438Z,-23495.44
2022-11-14T16:27:31.391Z,-23497.03
2022-11-14T16:29:34.159Z,-23496.38
2022-11-14T16:31:37.084Z,-23494.81
2022-11-14T16:33:39.839Z,-23494.50
2022-11-14T16:35:42.501Z,-23496.06
2022-11-14T16:37:45.896Z,-23492.91
2022-11-14T16:39:48.523Z,-23495.44
2022-11-14T16:41:51.185Z,-23495.75
2022-11-14T16:43:57.387Z,-23497.03
2022-11-14T16:46:04.869Z,-23495.75
2022-11-14T16:48:07.558Z,-23495.75
2022-11-14T16:50:11.051Z,-23494.16
2022-11-14T16:52:15.177Z,-23493.53
2022-11-14T16:54:18.341Z,-23495.13
2022-11-14T16:56:20.954Z,-23496.72
2022-11-14T16:58:23.615Z,-23493.53
2022-11-14T17:00:28.576Z,-23494.31
2022-11-14T17:02:31.182Z,-23493.22
2022-11-14T17:04:34.063Z,-23485.28
2022-11-14T17:06:36.685Z,-23484.03
2022-11-14T17:08:39.381Z,-23481.16
2022-11-14T17:10:42.299Z,-23482.44
2022-11-14T17:12:44.964Z,-23482.44
2022-11-14T17:14:47.570Z,-23484.97
2022-11-14T17:16:51.567Z,-23484.66
2022-11-14T17:18:54.826Z,-23483.22
2022-11-14T17:20:57.522Z,-23482.13
2022-11-14T17:23:00.199Z,-23482.91
2022-11-14T17:25:02.870Z,-23481.16
2022-11-14T17:27:05.599Z,-23478.78
2022-11-14T17:29:08.227Z,-23477.38
2022-11-14T17:31:11.522Z,-23477.84
2022-11-14T17:33:15.468Z,-23477.84
2022-11-14T17:35:18.190Z,-23476.25
2022-11-14T17:37:20.862Z,-23475.47
2022-11-14T17:39:23.542Z,-23474.19
2022-11-14T17:41:26.355Z,-23472.59
2022-11-14T17:43:33.111Z,-23474.19
2022-11-14T17:45:41.308Z,-23474.66
2022-11-14T17:47:44.095Z,-23475.94
2022-11-14T17:49:48.072Z,-23475.16
2022-11-14T17:51:50.672Z,-23477.03
2022-11-14T17:53:53.410Z,-23478.94
2022-11-14T17:55:57.711Z,-23478.16
2022-11-14T17:58:00.334Z,-23479.25
2022-11-14T18:00:03.939Z,-23479.09
2022-11-14T18:02:06.645Z,-23481.00
2022-11-14T18:04:09.581Z,-23483.22
2022-11-14T18:06:15.186Z,-23480.69
2022-11-14T18:08:18.349Z,-23486.56
2022-11-14T18:10:20.995Z,-23482.91
2022-11-14T18:12:23.592Z,-23482.28
2022-11-14T18:14:26.350Z,-23481.47
2022-11-14T18:16:50.454Z,-23479.09
2022-11-14T18:18:52.327Z,-23477.84
2022-11-14T18:20:54.951Z,-23484.81
2022-11-14T18:22:58.870Z,-23488.16
2022-11-14T18:25:07.405Z,-23484.34
2022-11-14T18:27:10.548Z,-23488.63
2022-11-14T18:29:15.487Z,-23487.84
2022-11-14T18:31:18.099Z,-23492.09
2022-11-14T18:33:20.719Z,-23489.72
2022-11-14T18:35:23.588Z,-23490.38
2022-11-14T18:37:26.275Z,-23493.69
2022-11-14T18:39:30.889Z,-23494.81
2022-11-14T18:41:33.499Z,-23495.28
2022-11-14T18:43:36.211Z,-23495.91
2022-11-14T18:45:38.791Z,-23498.13
2022-11-14T18:47:41.429Z,-23496.06
2022-11-14T18:49:44.892Z,-23502.09
2022-11-14T18:51:47.548Z,-23498.28
2022-11-14T18:53:51.294Z,-23496.72
2022-11-14T18:55:55.583Z,-23494.00
2022-11-14T18:57:58.253Z,-23495.13
2022-11-14T19:00:00.941Z,-23494.81
2022-11-14T19:02:03.686Z,-23492.25
2022-11-14T19:04:07.768Z,-23491.94
2022-11-14T19:06:12.664Z,-23492.59
2022-11-14T19:08:15.253Z,-23489.41
2022-11-14T19:10:17.946Z,-23490.22
2022-11-14T19:12:23.488Z,-23485.44
2022-11-14T19:14:26.139Z,-23486.72
2022-11-14T19:16:29.090Z,-23484.03
2022-11-14T19:18:32.710Z,-23486.09
2022-11-14T19:20:35.386Z,-23481.97
2022-11-14T19:22:38.005Z,-23479.59
2022-11-14T19:24:42.914Z,-23480.84
2022-11-14T19:26:45.822Z,-23481.00
2022-11-14T19:28:50.359Z,-23481.47
2022-11-14T19:30:53.043Z,-23482.75
2022-11-14T19:32:55.708Z,-23480.53
2022-11-14T19:34:58.362Z,-23479.44
2022-11-14T19:37:01.406Z,-23477.69
2022-11-14T19:39:04.591Z,-23475.47
2022-11-14T19:41:08.072Z,-23475.16
2022-11-14T19:43:12.340Z,-23474.34
2022-11-14T19:45:16.463Z,-23470.88
2022-11-14T19:47:19.295Z,-23469.44
2022-11-14T19:49:21.945Z,-23468.81
2022-11-14T19:51:24.718Z,-23464.69
2022-11-14T19:53:27.572Z,-23465.16
2022-11-14T19:55:31.120Z,-23466.91
2022-11-14T19:57:33.779Z,-23462.31
2022-11-14T19:59:36.389Z,-23462.78
2022-11-14T20:01:41.920Z,-23465.16
2022-11-14T20:03:44.656Z,-23464.84
2022-11-14T20:05:47.420Z,-23466.56
2022-11-14T20:07:50.183Z,-23471.34
2022-11-14T20:09:52.921Z,-23476.41
2022-11-14T20:11:55.674Z,-23473.56
2022-11-14T20:13:59.527Z,-23468.16
2022-11-14T20:16:02.282Z,-23466.44
2022-11-14T20:18:06.532Z,-23466.56
2022-11-14T20:20:10.213Z,-23463.41
2022-11-14T20:22:12.990Z,-23462.78
2022-11-14T20:24:21.301Z,-23458.97
2022-11-14T20:26:24.428Z,-23458.19
2022-11-14T20:28:27.682Z,-23460.25
2022-11-14T20:30:30.494Z,-23462.47
2022-11-14T20:32:33.207Z,-23457.69
2022-11-14T20:34:37.316Z,-23452.78
2022-11-14T20:37:09.420Z,-23457.53
2022-11-14T20:39:02.934Z,-23457.06
2022-11-14T20:41:05.899Z,-23451.19
2022-11-14T20:43:09.581Z,-23458.97
2022-11-14T20:45:12.492Z,-23451.03
2022-11-14T20:47:15.206Z,-23447.06
2022-11-14T20:49:17.992Z,-23445.31
2022-11-14T20:51:23.586Z,-23449.44
2022-11-14T20:53:26.349Z,-23447.88
2022-11-14T20:55:29.163Z,-23454.69
2022-11-14T20:57:32.097Z,-23452.78
2022-11-14T20:59:34.905Z,-23456.91
2022-11-14T21:01:43.262Z,-23459.44
2022-11-14T21:03:46.682Z,-23461.19
2022-11-14T21:05:49.551Z,-23464.03
2022-11-14T21:07:53.588Z,-23462.47
2022-11-14T21:10:10.077Z,-23461.66
2022-11-14T21:12:12.700Z,-23462.13
2022-11-14T21:14:15.651Z,-23459.44
2022-11-14T21:16:20.056Z,-23462.31
2022-11-14T21:18:22.904Z,-23463.41
2022-11-14T21:20:25.611Z,-23463.72
2022-11-14T21:22:28.250Z,-23463.88
2022-11-14T21:24:36.933Z,-23465.16
2022-11-14T21:26:42.192Z,-23465.63
2022-11-14T21:28:46.338Z,-23467.38
2022-11-14T21:30:48.978Z,-23467.84
2022-11-14T21:32:54.150Z,-23468.97
2022-11-14T21:34:56.772Z,-23473.72
2022-11-14T21:36:59.419Z,-23478.16
2022-11-14T21:39:02.159Z,-23481.66
2022-11-14T21:41:06.867Z,-23483.06
2022-11-14T21:43:09.534Z,-23477.69
2022-11-14T21:45:12.300Z,-23480.69
2022-11-14T21:47:14.924Z,-23478.16
2022-11-14T21:49:17.684Z,-23477.53
2022-11-14T21:51:22.025Z,-23474.50
2022-11-14T21:53:24.702Z,-23471.97
2022-11-14T21:55:27.311Z,-23475.16
2022-11-14T21:57:31.312Z,-23474.50
2022-11-14T21:59:33.953Z,-23470.69
2022-11-14T22:01:54.015Z,-23467.84
2022-11-14T22:04:19.367Z,-23467.53
2022-11-14T22:06:22.809Z,-23468.00
2022-11-14T22:08:25.531Z,-23470.38
2022-11-14T22:10:28.536Z,-23466.56
2022-11-14T22:12:35.192Z,-23466.75
2022-11-14T22:14:37.882Z,-23465.00
2022-11-14T22:16:41.011Z,-23465.00
2022-11-14T22:18:44.735Z,-23463.88
2022-11-14T22:20:47.835Z,-23462.31
2022-11-14T22:22:54.862Z,-23456.13
2022-11-14T22:24:57.602Z,-23460.72
2022-11-14T22:27:00.220Z,-23456.13
2022-11-14T22:29:04.201Z,-23453.91
2022-11-14T22:31:10.174Z,-23453.25
2022-11-14T22:33:12.839Z,-23452.31
2022-11-14T22:35:15.512Z,-23448.19
2022-11-14T22:37:18.131Z,-23446.91
2022-11-14T22:39:20.746Z,-23445.16
2022-11-14T22:41:31.486Z,-23437.72
2022-11-14T22:43:35.999Z,-23441.69
2022-11-14T22:45:40.036Z,-23442.16
2022-11-14T22:47:42.654Z,-23442.78
2022-11-14T22:49:45.729Z,-23440.56
2022-11-14T22:51:48.439Z,-23441.84
2022-11-14T22:53:53.033Z,-23439.59
2022-11-14T22:55:55.675Z,-23442.94
2022-11-14T22:57:59.717Z,-23444.69
2022-11-14T23:00:02.371Z,-23442.94
2022-11-14T23:02:06.324Z,-23443.41
2022-11-14T23:04:10.514Z,-23447.22
2022-11-14T23:06:14.933Z,-23451.03
2022-11-14T23:08:20.441Z,-23451.03
2022-11-14T23:10:23.087Z,-23446.28
2022-11-14T23:12:25.725Z,-23450.88
2022-11-14T23:14:28.369Z,-23452.31
2022-11-14T23:16:33.968Z,-23450.41
2022-11-14T23:18:38.320Z,-23450.88
2022-11-14T23:20:40.961Z,-23452.94
2022-11-14T23:22:43.542Z,-23456.44
2022-11-14T23:24:46.192Z,-23454.22
2022-11-14T23:26:48.832Z,-23453.25
2022-11-14T23:28:51.646Z,-23452.31
2022-11-14T23:30:56.844Z,-23452.31
2022-11-14T23:32:59.487Z,-23452.94
2022-11-14T23:35:03.527Z,-23452.31
2022-11-14T23:37:06.141Z,-23451.84
2022-11-14T23:39:08.749Z,-23452.00
2022-11-14T23:41:17.891Z,-23454.22
2022-11-14T23:43:20.757Z,-23454.22
2022-11-14T23:45:23.397Z,-23452.94
2022-11-14T23:47:26.033Z,-23454.38
2022-11-14T23:49:28.833Z,-23454.22
2022-11-14T23:51:32.909Z,-23454.22
2022-11-14T23:53:35.529Z,-23455.16
2022-11-14T23:55:38.453Z,-23453.72
2022-11-14T23:57:41.074Z,-23454.53